Time;durP1;ratioP1;P1;durP2;ratioP2;P2;SDS_P1;SDS_P2;PMS_P1;PMS_P2;Temp;Humidity;BMP_temperature;BMP_pressure;BME280_temperature;BME280_humidity;BME280_pressure;Samples;Min_cycle;Max_cycle;Signal;HPM_P1;HPM_P2
2023/05/11 00:02:12;;;;;;;31.52;11.95;;;13.30;57.30;;;;;;5069849;28;20025;-81
2023/05/11 00:04:38;;;;;;;32.90;11.73;;;13.20;56.50;;;;;;5060350;28;20031;-82
2023/05/11 00:07:04;;;;;;;27.95;11.63;;;13.20;56.00;;;;;;5074390;28;20409;-80
2023/05/11 00:09:30;;;;;;;28.30;10.75;;;13.20;57.00;;;;;;5074457;28;20078;-81
2023/05/11 00:11:56;;;;;;;35.65;11.63;;;13.20;56.10;;;;;;5075092;28;20021;-81
2023/05/11 00:14:22;;;;;;;17.48;9.45;;;13.20;56.70;;;;;;5074579;28;20812;-80
2023/05/11 00:16:48;;;;;;;21.80;8.77;;;13.20;55.80;;;;;;5074898;28;20112;-81
2023/05/11 00:19:14;;;;;;;32.03;10.60;;;13.20;55.60;;;;;;5082430;28;20024;-82
2023/05/11 00:21:39;;;;;;;18.35;8.15;;;13.20;55.60;;;;;;5062270;28;20553;-82
2023/05/11 00:24:06;;;;;;;19.13;8.90;;;13.20;55.30;;;;;;5074241;28;20021;-83
2023/05/11 00:26:31;;;;;;;23.55;9.30;;;13.30;55.80;;;;;;5073786;28;20092;-83
2023/05/11 00:28:57;;;;;;;20.30;8.73;;;13.20;55.40;;;;;;5071342;28;20703;-83
2023/05/11 00:31:23;;;;;;;14.57;7.82;;;13.30;55.40;;;;;;5074359;28;20029;-81
2023/05/11 00:33:49;;;;;;;15.88;8.32;;;13.20;54.40;;;;;;5074829;28;20493;-82
2023/05/11 00:36:15;;;;;;;23.52;9.13;;;13.30;54.20;;;;;;5074740;28;20012;-83
2023/05/11 00:38:41;;;;;;;23.13;9.05;;;13.30;54.20;;;;;;5078708;28;20039;-81
2023/05/11 00:41:07;;;;;;;19.52;8.07;;;13.30;54.10;;;;;;5078063;28;20040;-81
2023/05/11 00:43:33;;;;;;;26.15;10.15;;;13.30;54.90;;;;;;5077761;28;20020;-81
2023/05/11 00:46:01;;;;;;;24.08;9.45;;;13.30;55.60;;;;;;5074357;28;20021;-81
2023/05/11 00:48:26;;;;;;;28.23;10.48;;;13.30;55.70;;;;;;5077396;28;20024;-83
2023/05/11 00:50:53;;;;;;;13.57;7.72;;;13.20;56.10;;;;;;5073688;28;20031;-80
2023/05/11 00:53:19;;;;;;;17.10;8.38;;;13.20;55.70;;;;;;5075377;28;20584;-81
2023/05/11 00:55:45;;;;;;;19.40;9.32;;;13.20;55.30;;;;;;5070528;28;20071;-82
2023/05/11 00:58:11;;;;;;;21.60;8.02;;;13.20;55.40;;;;;;5084520;28;20032;-82
2023/05/11 01:00:37;;;;;;;17.63;8.13;;;13.20;55.50;;;;;;5071083;28;20024;-82
2023/05/11 01:03:04;;;;;;;17.23;7.55;;;13.20;55.20;;;;;;5080712;28;20016;-82
2023/05/11 01:05:42;;;;;;;13.85;7.63;;;13.20;55.00;;;;;;5077747;28;20023;-83
2023/05/11 01:08:21;;;;;;;18.40;7.55;;;13.20;54.80;;;;;;5065109;28;20028;-80
2023/05/11 01:10:52;;;;;;;14.60;7.05;;;13.20;54.80;;;;;;5073001;28;20021;-81
2023/05/11 01:13:31;;;;;;;15.80;6.82;;;13.20;54.60;;;;;;5070772;28;20028;-82
2023/05/11 01:15:57;;;;;;;16.05;6.85;;;13.10;54.50;;;;;;5073035;28;20365;-81
2023/05/11 01:18:35;;;;;;;13.77;6.80;;;13.10;54.50;;;;;;5073005;28;20572;-82
2023/05/11 01:21:02;;;;;;;15.98;7.47;;;13.10;54.60;;;;;;5073412;28;20089;-82
2023/05/11 01:23:55;;;;;;;12.82;7.43;;;13.10;54.70;;;;;;5077561;28;20099;-82
2023/05/11 01:26:38;;;;;;;17.98;6.82;;;13.10;54.70;;;;;;5072099;28;20416;-83
2023/05/11 01:29:25;;;;;;;11.73;7.22;;;13.10;54.90;;;;;;5059478;28;20020;-82
2023/05/11 01:31:54;;;;;;;13.60;7.13;;;13.00;55.00;;;;;;5072268;28;20043;-83
2023/05/11 01:34:24;;;;;;;11.07;6.30;;;13.00;55.10;;;;;;5072280;28;20380;-84
2023/05/11 01:36:57;;;;;;;14.52;7.85;;;13.00;55.30;;;;;;5071175;28;20032;-83
2023/05/11 01:39:33;;;;;;;15.45;7.05;;;13.00;55.30;;;;;;5072718;28;20572;-84
2023/05/11 01:42:10;;;;;;;21.98;7.95;;;13.00;55.00;;;;;;5064652;28;20020;-82
2023/05/11 01:44:43;;;;;;;13.90;7.47;;;13.00;55.40;;;;;;5072143;28;20028;-82
2023/05/11 01:47:11;;;;;;;13.05;6.53;;;12.90;55.30;;;;;;5070823;28;20029;-82
2023/05/11 01:49:39;;;;;;;12.32;6.70;;;13.00;55.50;;;;;;5072599;28;20036;-80
2023/05/11 01:52:07;;;;;;;14.90;7.15;;;12.90;55.50;;;;;;5072882;28;20025;-80
2023/05/11 01:54:34;;;;;;;11.43;6.20;;;12.90;55.50;;;;;;5062038;28;20127;-81
2023/05/11 01:57:02;;;;;;;17.77;6.70;;;12.90;56.00;;;;;;5069959;28;20032;-81
2023/05/11 01:59:28;;;;;;;23.00;8.48;;;12.90;56.90;;;;;;5072471;28;20065;-81
2023/05/11 02:01:56;;;;;;;12.40;7.38;;;12.90;57.90;;;;;;5072307;28;20157;-81
2023/05/11 02:04:23;;;;;;;16.90;7.18;;;12.90;57.10;;;;;;5066471;28;20070;-80
2023/05/11 02:06:51;;;;;;;13.57;6.78;;;12.90;57.40;;;;;;5072820;28;20053;-79
2023/05/11 02:09:18;;;;;;;19.00;7.43;;;12.90;56.90;;;;;;5078045;28;20027;-80
2023/05/11 02:11:48;;;;;;;13.65;7.13;;;12.80;57.30;;;;;;5088991;28;20112;-81
2023/05/11 02:14:17;;;;;;;14.20;7.50;;;12.90;57.30;;;;;;5073218;28;20021;-81
2023/05/11 02:16:45;;;;;;;16.80;7.65;;;12.90;58.00;;;;;;5077430;28;20028;-80
2023/05/11 02:19:13;;;;;;;13.88;8.25;;;12.90;57.90;;;;;;5087495;28;20065;-80
2023/05/11 02:21:41;;;;;;;15.50;7.30;;;12.90;57.50;;;;;;5077174;28;20115;-80
2023/05/11 02:24:08;;;;;;;13.85;7.38;;;12.90;57.00;;;;;;5080764;28;20108;-82
2023/05/11 02:26:34;;;;;;;10.23;6.80;;;12.90;57.10;;;;;;5079141;28;20094;-82
2023/05/11 02:29:00;;;;;;;18.23;7.15;;;12.90;57.00;;;;;;5074014;28;20040;-82
2023/05/11 02:31:31;;;;;;;16.00;7.55;;;13.00;57.00;;;;;;5079009;28;20092;-83
2023/05/11 02:34:05;;;;;;;20.10;7.05;;;13.00;57.10;;;;;;5077500;28;20020;-82
2023/05/11 02:36:34;;;;;;;14.88;6.57;;;13.00;57.20;;;;;;5076980;28;20028;-82
2023/05/11 02:39:07;;;;;;;11.50;6.82;;;13.00;57.20;;;;;;5076751;28;20052;-81
2023/05/11 02:41:39;;;;;;;17.73;7.32;;;13.00;57.10;;;;;;5075597;28;20025;-81
2023/05/11 02:44:10;;;;;;;10.52;5.47;;;13.00;56.80;;;;;;5087351;28;20401;-82
2023/05/11 02:46:38;;;;;;;13.30;6.63;;;13.10;56.60;;;;;;5075667;28;20032;-81
2023/05/11 02:49:08;;;;;;;10.88;5.93;;;13.10;56.70;;;;;;5068747;28;20410;-82
2023/05/11 02:51:40;;;;;;;11.60;6.15;;;13.10;56.50;;;;;;5079532;28;20513;-83
2023/05/11 02:54:09;;;;;;;9.48;6.32;;;13.20;56.50;;;;;;5079399;28;20032;-82
2023/05/11 02:56:36;;;;;;;15.20;6.32;;;13.20;56.50;;;;;;5081943;28;20044;-81
2023/05/11 02:59:03;;;;;;;13.15;5.65;;;13.20;56.90;;;;;;5081912;28;20031;-83
2023/05/11 03:01:29;;;;;;;8.85;6.25;;;13.20;56.30;;;;;;5080063;28;20033;-82
2023/05/11 03:03:57;;;;;;;13.18;6.05;;;13.30;56.30;;;;;;5079694;28;20017;-83
2023/05/11 03:06:24;;;;;;;12.50;6.50;;;13.30;56.20;;;;;;5080061;28;20161;-84
2023/05/11 03:08:50;;;;;;;13.02;5.75;;;13.30;56.30;;;;;;5077620;28;20017;-83
2023/05/11 03:11:17;;;;;;;11.65;5.88;;;13.30;56.00;;;;;;5084668;28;20025;-81
2023/05/11 03:13:45;;;;;;;14.25;6.18;;;13.30;56.10;;;;;;5076452;28;20028;-82
2023/05/11 03:16:12;;;;;;;18.38;6.60;;;13.40;56.10;;;;;;5079052;28;20027;-81
2023/05/11 03:18:38;;;;;;;;;;;13.40;56.60;;;;;;5075950;28;20049;-80
2023/05/11 03:21:05;;;;;;;14.43;6.00;;;13.40;55.70;;;;;;5074042;28;20412;-80
2023/05/11 03:23:33;;;;;;;12.20;6.28;;;13.40;55.90;;;;;;5074922;28;20017;-80
2023/05/11 03:26:01;;;;;;;13.20;6.00;;;13.40;55.80;;;;;;5075092;28;20393;-81
2023/05/11 03:28:28;;;;;;;11.95;5.15;;;13.50;55.50;;;;;;5073507;28;20488;-81
2023/05/11 03:30:54;;;;;;;9.77;5.97;;;13.50;55.40;;;;;;5074752;28;20058;-80
2023/05/11 03:33:20;;;;;;;14.68;5.60;;;13.60;55.40;;;;;;5078898;28;20021;-79
2023/05/11 03:35:49;;;;;;;10.00;5.88;;;13.60;55.00;;;;;;5075138;28;20032;-80
2023/05/11 03:38:16;;;;;;;9.00;5.57;;;13.70;54.90;;;;;;5076356;28;20035;-81
2023/05/11 03:40:43;;;;;;;11.23;5.78;;;13.80;54.70;;;;;;5078764;28;20036;-80
2023/05/11 03:43:15;;;;;;;12.05;5.45;;;13.90;54.30;;;;;;5092007;28;20059;-80
2023/05/11 03:45:43;;;;;;;13.20;5.70;;;13.90;54.20;;;;;;5089456;28;20016;-80
2023/05/11 03:48:10;;;;;;;12.40;6.07;;;14.00;54.20;;;;;;5094140;28;20031;-81
2023/05/11 03:50:38;;;;;;;9.93;5.40;;;14.10;53.80;;;;;;5075675;28;20078;-80
2023/05/11 03:53:04;;;;;;;8.65;5.03;;;14.20;53.70;;;;;;5077776;28;20020;-82
2023/05/11 03:55:31;;;;;;;8.20;4.70;;;14.20;53.70;;;;;;5075393;28;20012;-81
2023/05/11 03:57:57;;;;;;;14.00;4.82;;;14.30;53.50;;;;;;5075352;28;20119;-81
2023/05/11 04:00:23;;;;;;;7.57;4.80;;;14.40;53.40;;;;;;5075760;28;20438;-79
2023/05/11 04:02:50;;;;;;;8.15;4.43;;;14.40;52.80;;;;;;5083837;28;20036;-81
2023/05/11 04:05:17;;;;;;;7.45;5.35;;;14.40;52.60;;;;;;5076047;28;20025;-80
2023/05/11 04:07:43;;;;;;;10.00;4.47;;;14.50;52.90;;;;;;5077694;28;20075;-81
2023/05/11 04:10:09;;;;;;;5.53;3.85;;;14.50;52.50;;;;;;5076308;28;20024;-80
2023/05/11 04:12:35;;;;;;;6.60;4.15;;;14.50;52.10;;;;;;5073725;28;20043;-80
2023/05/11 04:15:01;;;;;;;9.95;4.72;;;14.60;52.10;;;;;;5068748;28;20029;-81
2023/05/11 04:17:27;;;;;;;6.43;4.03;;;14.60;52.00;;;;;;5074750;28;20039;-80
2023/05/11 04:19:53;;;;;;;10.65;4.57;;;14.70;52.00;;;;;;5075324;28;20016;-81
2023/05/11 04:22:19;;;;;;;6.85;5.07;;;14.70;51.90;;;;;;5072560;28;20032;-80
2023/05/11 04:24:44;;;;;;;14.45;5.15;;;14.80;51.90;;;;;;5075162;28;20016;-80
2023/05/11 04:27:10;;;;;;;17.77;9.05;;;14.90;51.90;;;;;;5064941;28;20024;-82
2023/05/11 04:29:36;;;;;;;12.88;5.38;;;14.80;52.00;;;;;;5074061;28;20021;-82
2023/05/11 04:32:02;;;;;;;10.70;5.07;;;14.80;52.00;;;;;;5071260;28;20032;-83
2023/05/11 04:34:28;;;;;;;14.75;8.15;;;14.70;52.00;;;;;;5074799;28;20021;-81
2023/05/11 04:36:54;;;;;;;15.68;5.80;;;14.70;52.30;;;;;;5075452;28;20024;-80
2023/05/11 04:39:19;;;;;;;11.27;5.00;;;14.80;52.30;;;;;;5078691;28;20029;-81
2023/05/11 04:41:45;;;;;;;12.90;5.13;;;15.00;52.10;;;;;;5078466;28;20498;-80
2023/05/11 04:44:11;;;;;;;8.95;4.50;;;15.10;51.60;;;;;;5075895;28;20102;-80
2023/05/11 04:46:37;;;;;;;15.95;5.88;;;15.30;51.40;;;;;;5075280;28;20047;-80
2023/05/11 04:49:04;;;;;;;10.63;5.07;;;15.40;51.10;;;;;;5076684;28;20500;-81
2023/05/11 04:51:30;;;;;;;9.50;5.53;;;15.50;50.50;;;;;;5077166;28;20025;-82
2023/05/11 04:53:56;;;;;;;12.02;5.05;;;15.60;50.50;;;;;;5068436;28;20021;-83
2023/05/11 04:56:22;;;;;;;10.68;4.65;;;15.60;50.50;;;;;;5066309;28;20115;-82
2023/05/11 04:58:48;;;;;;;9.63;4.95;;;15.60;50.80;;;;;;5072909;28;20028;-81
2023/05/11 05:01:14;;;;;;;13.13;5.72;;;15.60;50.90;;;;;;5073843;28;20021;-82
2023/05/11 05:03:39;;;;;;;11.02;4.85;;;15.70;50.60;;;;;;5073237;28;20021;-80
2023/05/11 05:06:05;;;;;;;18.27;5.32;;;15.90;50.30;;;;;;5063024;28;20039;-80
2023/05/11 05:08:31;;;;;;;10.35;5.15;;;16.20;49.80;;;;;;5079221;28;20055;-81
2023/05/11 05:10:57;;;;;;;10.55;5.70;;;16.30;49.70;;;;;;5074109;28;20103;-82
2023/05/11 05:13:23;;;;;;;12.32;6.32;;;16.20;49.50;;;;;;5068875;28;20021;-82
2023/05/11 05:15:49;;;;;;;13.48;6.50;;;16.10;49.60;;;;;;5072266;28;20028;-79
2023/05/11 05:18:15;;;;;;;11.75;5.07;;;16.30;50.10;;;;;;5071360;28;20037;-82
2023/05/11 05:20:41;;;;;;;26.42;12.50;;;17.10;48.80;;;;;;5071131;28;20017;-80
2023/05/11 05:23:06;;;;;;;12.13;7.68;;;17.50;47.90;;;;;;5065234;28;20428;-81
2023/05/11 05:25:32;;;;;;;12.90;5.75;;;17.50;47.80;;;;;;5071374;28;20385;-82
2023/05/11 05:27:58;;;;;;;12.98;6.28;;;17.30;47.60;;;;;;5073681;28;20039;-82
2023/05/11 05:30:24;;;;;;;8.45;5.50;;;17.30;48.30;;;;;;5074009;28;20024;-81
2023/05/11 05:32:50;;;;;;;11.57;6.97;;;17.50;48.00;;;;;;5074050;28;20095;-83
2023/05/11 05:35:16;;;;;;;12.88;6.45;;;17.70;47.90;;;;;;5069911;28;20039;-81
2023/05/11 05:37:42;;;;;;;12.63;5.97;;;17.80;47.60;;;;;;5077123;28;20036;-82
2023/05/11 05:40:08;;;;;;;12.13;5.90;;;18.00;47.50;;;;;;5078678;28;20409;-83
2023/05/11 05:42:34;;;;;;;17.88;7.95;;;18.20;47.70;;;;;;5071909;28;20117;-80
2023/05/11 05:45:00;;;;;;;11.48;6.55;;;18.20;47.50;;;;;;5076376;28;20100;-80
2023/05/11 05:47:26;;;;;;;13.77;6.07;;;18.40;46.90;;;;;;5075853;28;20017;-82
2023/05/11 05:49:52;;;;;;;11.30;7.55;;;18.60;46.40;;;;;;5074114;28;20027;-82
2023/05/11 05:52:18;;;;;;;9.35;6.05;;;18.60;46.10;;;;;;5070671;28;20017;-81
2023/05/11 05:54:44;;;;;;;15.30;6.93;;;18.50;46.70;;;;;;5075412;28;20017;-83
2023/05/11 05:57:10;;;;;;;18.48;6.93;;;18.40;47.80;;;;;;5074827;28;20031;-83
2023/05/11 05:59:36;;;;;;;20.83;8.07;;;18.60;47.20;;;;;;5071781;28;20037;-81
2023/05/11 06:02:02;;;;;;;15.13;8.15;;;18.90;46.30;;;;;;5073172;28;20698;-83
2023/05/11 06:04:28;;;;;;;12.43;6.15;;;18.90;45.80;;;;;;5072780;28;20021;-84
2023/05/11 06:06:54;;;;;;;10.85;5.95;;;19.20;45.50;;;;;;5072439;28;20558;-84
2023/05/11 06:09:22;;;;;;;12.38;6.20;;;20.30;44.20;;;;;;5072705;28;20047;-83
2023/05/11 06:11:48;;;;;;;25.05;7.78;;;21.10;42.80;;;;;;5073735;28;20048;-83
2023/05/11 06:14:14;;;;;;;16.63;7.05;;;21.10;41.90;;;;;;5087744;28;20058;-85
2023/05/11 06:16:40;;;;;;;18.23;6.90;;;20.70;41.60;;;;;;5098219;28;20036;-83
2023/05/11 06:19:07;;;;;;;13.05;6.68;;;20.20;42.60;;;;;;5086071;28;20465;-81
2023/05/11 06:21:33;;;;;;;24.58;7.07;;;19.90;42.80;;;;;;5074228;28;20115;-81
2023/05/11 06:23:59;;;;;;;16.02;6.80;;;19.60;43.40;;;;;;5077535;28;20436;-82
2023/05/11 06:26:27;;;;;;;12.93;5.75;;;19.60;43.50;;;;;;5075304;28;20020;-81
2023/05/11 06:28:53;;;;;;;8.80;6.03;;;19.50;43.40;;;;;;5077484;28;20036;-83
2023/05/11 06:31:21;;;;;;;13.43;6.38;;;19.30;43.20;;;;;;5076362;28;20028;-81
2023/05/11 06:33:47;;;;;;;10.85;5.35;;;19.30;43.30;;;;;;5074309;28;20024;-81
2023/05/11 06:36:14;;;;;;;13.40;5.57;;;19.60;43.20;;;;;;5076280;28;20021;-83
2023/05/11 06:38:40;;;;;;;15.18;5.32;;;20.30;43.00;;;;;;5073797;28;20021;-85
2023/05/11 06:41:06;;;;;;;14.15;4.65;;;21.30;40.60;;;;;;5077305;28;20091;-83
2023/05/11 06:43:32;;;;;;;6.97;4.15;;;;;;;;;;5075084;28;20029;-82
2023/05/11 06:45:58;;;;;;;8.07;4.25;;;22.10;39.40;;;;;;5078126;28;20023;-82
2023/05/11 06:48:24;;;;;;;13.57;4.20;;;24.20;36.70;;;;;;5074303;28;20016;-82
2023/05/11 06:50:51;;;;;;;6.78;3.38;;;25.60;35.40;;;;;;5073529;28;20058;-81
2023/05/11 06:53:17;;;;;;;11.03;3.80;;;26.50;33.10;;;;;;5075501;28;20013;-83
2023/05/11 06:55:44;;;;;;;6.55;3.80;;;27.00;33.20;;;;;;5076699;28;20320;-82
2023/05/11 06:58:09;;;;;;;10.00;3.35;;;27.70;32.00;;;;;;5071837;28;20116;-82
2023/05/11 07:00:35;;;;;;;9.02;2.90;;;27.90;31.90;;;;;;5071779;28;20485;-82
2023/05/11 07:03:01;;;;;;;10.48;3.92;;;28.30;31.40;;;;;;5072030;28;20043;-80
2023/05/11 07:05:28;;;;;;;10.40;5.68;;;28.70;31.00;;;;;;5070734;28;20032;-83
2023/05/11 07:07:54;;;;;;;11.30;4.10;;;28.70;30.70;;;;;;5071799;28;20028;-82
2023/05/11 07:10:20;;;;;;;6.43;4.60;;;27.30;31.30;;;;;;5073168;28;20178;-83
2023/05/11 07:12:46;;;;;;;12.93;3.33;;;26.50;31.70;;;;;;5075319;28;20157;-80
2023/05/11 07:15:12;;;;;;;5.80;2.97;;;26.10;32.30;;;;;;5076264;28;20040;-83
2023/05/11 07:17:38;;;;;;;9.85;3.90;;;26.30;32.40;;;;;;5081445;28;20047;-82
2023/05/11 07:20:04;;;;;;;10.50;3.70;;;26.40;32.60;;;;;;5085672;28;20093;-82
2023/05/11 07:22:30;;;;;;;6.65;3.17;;;26.30;32.60;;;;;;5076840;28;20032;-83
2023/05/11 07:24:56;;;;;;;11.07;3.42;;;26.20;32.80;;;;;;5080556;28;20541;-82
2023/05/11 07:27:22;;;;;;;7.00;2.65;;;26.50;32.60;;;;;;5082462;28;20024;-82
2023/05/11 07:29:48;;;;;;;5.32;3.00;;;26.40;32.30;;;;;;5091905;28;20498;-82
2023/05/11 07:32:14;;;;;;;10.93;3.87;;;26.80;32.50;;;;;;5074899;28;20082;-82
2023/05/11 07:34:40;;;;;;;12.68;4.13;;;28.10;32.20;;;;;;5061414;28;20025;-82
2023/05/11 07:37:07;;;;;;;7.13;3.92;;;29.30;31.30;;;;;;5074392;28;20036;-82
2023/05/11 07:39:33;;;;;;;14.63;4.95;;;30.00;30.80;;;;;;5076808;28;20028;-83
2023/05/11 07:41:59;;;;;;;6.17;3.27;;;30.80;30.30;;;;;;5077955;28;20108;-82
2023/05/11 07:44:25;;;;;;;8.10;3.17;;;31.80;29.40;;;;;;5080507;28;20474;-85
2023/05/11 07:46:51;;;;;;;5.90;3.00;;;31.60;28.80;;;;;;5089740;28;20025;-83
2023/05/11 07:49:17;;;;;;;9.67;2.73;;;31.60;29.00;;;;;;5084137;28;20039;-84
2023/05/11 07:51:43;;;;;;;7.77;3.17;;;31.70;28.90;;;;;;5077013;28;20028;-84
2023/05/11 07:54:09;;;;;;;7.27;2.87;;;31.80;28.80;;;;;;5067708;28;20083;-84
2023/05/11 07:56:35;;;;;;;11.23;5.23;;;32.80;28.90;;;;;;5068746;28;20281;-84
2023/05/11 07:59:01;;;;;;;4.63;2.73;;;33.30;27.90;;;;;;5073968;28;20521;-82
2023/05/11 08:01:27;;;;;;;7.67;3.47;;;31.70;28.30;;;;;;5074684;28;20067;-84
2023/05/11 08:03:52;;;;;;;8.33;3.03;;;31.30;29.10;;;;;;5078676;28;20020;-83
2023/05/11 08:06:18;;;;;;;4.00;2.63;;;32.10;28.90;;;;;;5074191;28;20040;-82
2023/05/11 08:08:44;;;;;;;6.10;2.73;;;35.70;27.70;;;;;;5075149;28;20048;-84
2023/05/11 08:11:10;;;;;;;7.20;3.58;;;36.40;27.30;;;;;;5074160;28;20404;-83
2023/05/11 08:13:36;;;;;;;4.70;2.63;;;36.50;26.60;;;;;;5074181;28;20028;-84
2023/05/11 08:16:02;;;;;;;8.93;5.17;;;34.60;26.70;;;;;;5073995;28;20081;-83
2023/05/11 08:18:28;;;;;;;4.67;3.00;;;33.10;27.50;;;;;;5072489;28;20036;-84
2023/05/11 08:20:54;;;;;;;5.63;2.80;;;32.40;27.80;;;;;;5074323;28;20021;-84
2023/05/11 08:23:20;;;;;;;7.50;3.30;;;32.00;28.00;;;;;;5074093;28;20031;-83
2023/05/11 08:25:53;;;;;;;9.07;2.77;;;30.90;28.40;;;;;;5073760;28;20025;-84
2023/05/11 08:28:20;;;;;;;11.30;2.80;;;29.40;29.60;;;;;;5072135;28;20028;-84
2023/05/11 08:30:52;;;;;;;12.45;3.20;;;27.90;29.90;;;;;;5073684;28;20028;-82
2023/05/11 08:33:18;;;;;;;8.30;4.05;;;26.40;31.10;;;;;;5073893;28;20024;-83
2023/05/11 08:35:44;;;;;;;7.70;3.17;;;24.90;32.60;;;;;;5074174;28;20434;-82
2023/05/11 08:38:10;;;;;;;9.00;3.60;;;23.50;34.40;;;;;;5074003;28;20079;-84
2023/05/11 08:40:36;;;;;;;9.07;3.20;;;22.90;35.40;;;;;;5072861;28;20090;-82
2023/05/11 08:43:06;;;;;;;10.23;3.80;;;23.60;35.50;;;;;;5073585;28;20366;-83
2023/05/11 08:45:35;;;;;;;6.05;3.30;;;24.40;34.60;;;;;;5089228;28;20021;-83
2023/05/11 08:48:02;;;;;;;5.07;2.60;;;25.70;33.30;;;;;;5056470;28;20025;-84
2023/05/11 08:50:28;;;;;;;4.07;2.58;;;26.80;31.20;;;;;;5073769;28;20023;-82
2023/05/11 08:52:54;;;;;;;5.35;3.05;;;28.20;31.00;;;;;;5074034;28;20032;-85
2023/05/11 08:55:24;;;;;;;2.63;1.95;;;29.20;29.70;;;;;;5059941;28;20474;-82
2023/05/11 08:57:52;;;;;;;4.57;2.03;;;28.20;29.30;;;;;;5073687;28;20029;-84
2023/05/11 09:00:18;;;;;;;6.72;3.22;;;26.90;30.30;;;;;;5073032;28;20385;-82
2023/05/11 09:02:45;;;;;;;3.38;2.50;;;26.10;31.20;;;;;;5071791;28;20178;-84
2023/05/11 09:05:11;;;;;;;6.63;2.75;;;25.00;32.20;;;;;;5073033;28;20052;-82
2023/05/11 09:07:40;;;;;;;15.10;5.65;;;24.70;33.30;;;;;;5074081;28;20129;-82
2023/05/11 09:10:07;;;;;;;4.60;2.72;;;26.10;33.30;;;;;;5074166;28;20024;-84
2023/05/11 09:12:34;;;;;;;;;;;28.60;31.70;;;;;;5074017;28;20111;-83
2023/05/11 09:15:00;;;;;;;4.55;2.80;;;28.30;30.20;;;;;;5074673;28;19990;-85
2023/05/11 09:17:27;;;;;;;8.50;3.30;;;27.10;30.60;;;;;;5073692;28;20442;-84
2023/05/11 09:19:58;;;;;;;9.48;3.47;;;25.40;31.80;;;;;;5064271;28;20648;-84
2023/05/11 09:22:24;;;;;;;3.28;2.40;;;25.60;33.20;;;;;;5076236;28;20028;-83
2023/05/11 09:24:51;;;;;;;6.90;3.05;;;27.80;31.80;;;;;;5076074;28;20055;-82
2023/05/11 09:27:17;;;;;;;11.23;3.80;;;30.40;30.20;;;;;;5057860;28;20071;-83
2023/05/11 09:29:43;;;;;;;14.30;4.60;;;32.80;29.30;;;;;;5073465;28;20033;-84
2023/05/11 09:32:09;;;;;;;10.73;3.30;;;;;;;;;;5072908;28;20485;-82
2023/05/11 09:34:35;;;;;;;8.15;3.60;;;36.00;27.10;;;;;;5082127;28;20393;-85
2023/05/11 09:37:01;;;;;;;9.05;3.75;;;36.60;26.80;;;;;;5073168;28;20044;-84
2023/05/11 09:39:34;;;;;;;5.25;2.53;;;36.90;26.20;;;;;;5074528;28;20021;-84
2023/05/11 09:42:17;;;;;;;6.88;2.58;;;35.90;26.10;;;;;;5081945;28;20033;-84
2023/05/11 09:44:44;;;;;;;8.70;3.58;;;33.50;26.60;;;;;;5076519;28;20012;-83
2023/05/11 09:47:15;;;;;;;6.72;3.60;;;30.70;27.80;;;;;;5067306;28;20406;-84
2023/05/11 09:49:43;;;;;;;7.57;3.33;;;29.30;29.10;;;;;;5073489;28;20474;-82
2023/05/11 09:52:10;;;;;;;5.82;2.50;;;28.80;29.00;;;;;;5079162;28;20127;-84
2023/05/11 09:54:47;;;;;;;4.78;2.53;;;27.90;29.40;;;;;;5068980;28;20025;-84
2023/05/11 09:57:30;;;;;;;6.68;2.55;;;26.70;30.50;;;;;;5074399;28;20017;-85
2023/05/11 09:59:59;;;;;;;8.68;3.13;;;25.30;31.70;;;;;;5073473;28;20394;-85
2023/05/11 10:02:29;;;;;;;4.60;2.00;;;24.20;33.50;;;;;;5074877;28;20035;-83
2023/05/11 10:04:57;;;;;;;6.55;2.75;;;;;;;;;;5065169;28;20501;-83
2023/05/11 10:07:33;;;;;;;26.60;4.20;;;22.90;35.00;;;;;;5072818;28;20063;-82
2023/05/11 10:10:04;;;;;;;17.55;4.43;;;21.00;42.10;;;;;;5072447;28;20159;-81
2023/05/11 10:12:32;;;;;;;8.15;3.25;;;19.30;47.30;;;;;;5073718;28;20031;-81
2023/05/11 10:15:00;;;;;;;4.97;2.25;;;17.80;51.60;;;;;;5078698;28;20020;-83
2023/05/11 10:17:29;;;;;;;5.57;2.97;;;16.40;50.80;;;;;;5077156;28;20365;-83
2023/05/11 10:19:55;;;;;;;9.90;3.28;;;;;;;;;;5068977;28;20017;-83
2023/05/11 10:22:27;;;;;;;8.80;3.72;;;15.60;56.50;;;;;;5085348;28;20036;-81
2023/05/11 10:24:55;;;;;;;6.32;4.53;;;14.50;63.40;;;;;;5080997;28;20035;-82
2023/05/11 10:27:21;;;;;;;10.38;7.72;;;14.40;65.90;;;;;;5074890;28;20469;-84
2023/05/11 10:29:48;;;;;;;3.70;2.67;;;14.80;65.00;;;;;;5073578;28;20189;-82
2023/05/11 10:32:16;;;;;;;7.03;3.30;;;15.10;61.60;;;;;;5074729;28;20453;-82
2023/05/11 10:34:43;;;;;;;9.80;3.78;;;15.40;62.10;;;;;;5074165;28;20112;-81
2023/05/11 10:37:09;;;;;;;10.13;3.60;;;16.10;62.60;;;;;;5071103;28;20043;-82
2023/05/11 10:39:37;;;;;;;7.33;4.27;;;16.90;60.40;;;;;;5072424;28;20388;-82
2023/05/11 10:42:15;;;;;;;3.83;2.90;;;17.50;60.50;;;;;;5074217;28;20039;-83
2023/05/11 10:44:50;;;;;;;6.82;4.18;;;17.60;58.00;;;;;;5078579;28;20020;-83
2023/05/11 10:47:57;;;;;;;5.55;3.78;;;17.80;57.50;;;;;;5076559;28;20031;-83
2023/05/11 10:50:29;;;;;;;20.80;14.68;;;18.20;55.90;;;;;;5058316;28;20032;-83
2023/05/11 10:53:24;;;;;;;7.35;4.95;;;18.50;55.40;;;;;;5075476;28;20377;-84
2023/05/11 10:56:19;;;;;;;9.88;4.65;;;18.70;53.90;;;;;;5061827;28;20031;-85
2023/05/11 10:59:21;;;;;;;6.95;4.45;;;18.80;55.30;;;;;;5067228;28;20082;-84
2023/05/11 11:01:57;;;;;;;10.98;6.32;;;18.70;52.80;;;;;;5037238;28;20101;-84
2023/05/11 11:04:24;;;;;;;4.38;3.13;;;18.60;52.60;;;;;;5091224;28;20070;-83
2023/05/11 11:07:04;;;;;;;8.57;4.22;;;18.60;51.30;;;;;;5078858;28;20040;-82
2023/05/11 11:09:51;;;;;;;7.15;2.97;;;18.90;51.50;;;;;;5065407;28;20088;-83
2023/05/11 11:12:17;;;;;;;4.20;2.58;;;19.10;49.90;;;;;;5073952;28;20059;-83
2023/05/11 11:15:05;;;;;;;5.00;3.33;;;19.10;48.60;;;;;;5052658;28;20058;-82
2023/05/11 11:17:34;;;;;;;4.82;2.92;;;19.00;51.10;;;;;;5035711;28;20028;-81
2023/05/11 11:20:07;;;;;;;5.20;2.72;;;19.00;49.90;;;;;;5052857;28;20397;-81
2023/05/11 11:22:37;;;;;;;4.63;2.65;;;18.80;48.70;;;;;;5041202;28;20501;-82
2023/05/11 11:25:10;;;;;;;9.35;4.47;;;18.60;50.20;;;;;;5053375;28;20443;-84
2023/05/11 11:27:47;;;;;;;10.32;3.00;;;18.30;49.90;;;;;;5054894;28;20032;-83
2023/05/11 11:30:20;;;;;;;4.70;2.42;;;17.80;50.40;;;;;;5055492;28;20097;-83
2023/05/11 11:32:53;;;;;;;7.63;2.97;;;17.40;50.60;;;;;;5065574;28;20025;-81
2023/05/11 11:35:40;;;;;;;5.50;2.25;;;17.00;52.50;;;;;;5063432;28;20041;-83
2023/05/11 11:38:09;;;;;;;5.05;2.67;;;16.40;56.40;;;;;;5053285;28;20047;-84
2023/05/11 11:40:42;;;;;;;9.88;4.07;;;15.30;60.60;;;;;;5060607;28;20097;-84
2023/05/11 11:43:21;;;;;;;4.43;2.42;;;14.50;65.80;;;;;;5054391;28;20025;-83
2023/05/11 11:46:02;;;;;;;3.88;2.40;;;14.10;69.00;;;;;;5064162;28;20083;-83
2023/05/11 11:48:36;;;;;;;6.13;3.03;;;13.90;70.70;;;;;;5061559;28;20048;-83
2023/05/11 11:51:04;;;;;;;6.25;4.10;;;13.80;70.80;;;;;;5073198;28;20039;-81
2023/05/11 11:53:36;;;;;;;6.95;3.67;;;13.60;69.50;;;;;;5070930;28;20017;-82
2023/05/11 11:56:03;;;;;;;5.18;3.10;;;13.60;68.40;;;;;;5062765;28;20033;-83
2023/05/11 11:58:44;;;;;;;4.35;2.70;;;13.80;68.50;;;;;;5074936;28;20135;-84
2023/05/11 12:01:21;;;;;;;5.50;2.28;;;14.00;67.90;;;;;;5077482;28;20440;-83
2023/05/11 12:04:12;;;;;;;6.40;2.90;;;14.10;67.60;;;;;;5086010;28;20028;-82
2023/05/11 12:06:40;;;;;;;6.78;3.20;;;14.20;68.20;;;;;;5074558;28;20040;-82
2023/05/11 12:09:07;;;;;;;3.78;2.50;;;14.50;69.50;;;;;;5074464;28;20119;-82
2023/05/11 12:11:33;;;;;;;5.50;2.92;;;14.70;69.10;;;;;;5074681;28;20028;-83
2023/05/11 12:14:00;;;;;;;5.90;3.13;;;15.00;68.30;;;;;;5078143;28;20044;-82
2023/05/11 12:16:27;;;;;;;4.38;2.90;;;15.30;68.20;;;;;;5074123;28;20376;-82
2023/05/11 12:18:55;;;;;;;8.20;3.17;;;15.50;67.90;;;;;;5089720;28;20090;-82
2023/05/11 12:21:26;;;;;;;6.70;4.63;;;15.50;69.50;;;;;;5078847;28;20258;-84
2023/05/11 12:23:57;;;;;;;5.70;3.78;;;15.60;70.80;;;;;;5079232;28;20377;-82
2023/05/11 12:26:25;;;;;;;7.28;3.60;;;15.70;70.40;;;;;;5078975;28;20025;-82
2023/05/11 12:29:04;;;;;;;5.13;3.33;;;15.80;71.20;;;;;;5075811;28;20048;-82
2023/05/11 12:31:35;;;;;;;4.72;3.28;;;15.70;69.70;;;;;;5076481;28;20141;-82
2023/05/11 12:34:01;;;;;;;6.07;3.42;;;15.70;68.80;;;;;;5074211;28;20389;-82
2023/05/11 12:36:26;;;;;;;5.60;3.80;;;15.80;68.50;;;;;;5072217;28;20493;-82
2023/05/11 12:38:52;;;;;;;4.13;2.88;;;16.00;68.30;;;;;;5062261;28;20052;-83
2023/05/11 12:41:22;;;;;;;3.55;2.80;;;16.10;67.30;;;;;;5071117;28;20098;-82
2023/05/11 12:43:51;;;;;;;7.38;4.22;;;16.20;67.30;;;;;;5073851;28;20025;-85
2023/05/11 12:46:18;;;;;;;5.95;2.80;;;16.40;67.70;;;;;;5074977;28;20028;-83
2023/05/11 12:48:48;;;;;;;8.60;4.97;;;16.50;65.70;;;;;;5068015;28;20029;-82
2023/05/11 12:51:43;;;;;;;5.95;2.85;;;16.60;66.10;;;;;;5076755;28;20638;-82